Time;durP1;ratioP1;P1;durP2;ratioP2;P2;SDS_P1;SDS_P2;PMS_P1;PMS_P2;Temp;Humidity;BMP_temperature;BMP_pressure;BME280_temperature;BME280_humidity;BME280_pressure;Samples;Min_cycle;Max_cycle;Signal;HPM_P1;HPM_P2
2024/01/23 00:01:56;;;;;;;0.50;0.50;;;10.50;70.50;;;;;;5094117;28;20028;-71
2024/01/23 00:04:21;;;;;;;0.60;0.60;;;10.40;70.60;;;;;;5093751;28;20093;-71
2024/01/23 00:06:47;;;;;;;0.60;0.60;;;10.50;70.70;;;;;;5093884;28;20464;-71
2024/01/23 00:09:13;;;;;;;0.50;0.50;;;10.40;70.80;;;;;;5093805;28;20032;-71
2024/01/23 00:11:39;;;;;;;0.50;0.50;;;10.40;70.70;;;;;;5094054;28;20020;-71
2024/01/23 00:14:04;;;;;;;0.60;0.60;;;10.30;70.70;;;;;;5093931;28;20533;-71
2024/01/23 00:16:30;;;;;;;0.57;0.57;;;10.40;70.40;;;;;;5093975;28;20027;-71
2024/01/23 00:18:55;;;;;;;0.60;0.60;;;10.30;70.30;;;;;;5093713;28;20512;-73
2024/01/23 00:21:21;;;;;;;0.50;0.50;;;10.30;70.10;;;;;;5075424;28;20032;-73
2024/01/23 00:23:46;;;;;;;0.50;0.50;;;10.20;70.20;;;;;;5092720;28;20043;-73
2024/01/23 00:26:12;;;;;;;0.50;0.50;;;10.20;70.30;;;;;;5093429;28;20032;-73
2024/01/23 00:28:38;;;;;;;0.90;0.90;;;10.20;70.30;;;;;;5093693;28;20037;-73
2024/01/23 00:31:03;;;;;;;0.50;0.50;;;10.20;70.10;;;;;;5093397;28;20520;-73
2024/01/23 00:33:29;;;;;;;0.50;0.50;;;10.10;70.10;;;;;;5093549;28;20070;-73
2024/01/23 00:35:54;;;;;;;0.50;0.50;;;10.10;70.10;;;;;;5074795;28;20032;-73
2024/01/23 00:38:20;;;;;;;0.50;0.50;;;10.10;70.10;;;;;;5093104;28;20128;-73
2024/01/23 00:40:45;;;;;;;0.60;0.60;;;10.10;70.50;;;;;;5093106;28;20028;-73
2024/01/23 00:43:12;;;;;;;0.50;0.50;;;10.20;70.70;;;;;;5093106;28;20028;-73
2024/01/23 00:45:38;;;;;;;0.50;0.50;;;10.20;70.80;;;;;;5093116;28;20032;-73
2024/01/23 00:48:04;;;;;;;0.40;0.40;;;10.30;70.80;;;;;;5092762;28;20075;-73
2024/01/23 00:50:29;;;;;;;0.50;0.50;;;10.30;70.80;;;;;;5093040;28;20070;-73
2024/01/23 00:52:55;;;;;;;0.50;0.50;;;10.30;70.90;;;;;;5092779;28;20036;-73
2024/01/23 00:55:20;;;;;;;2.72;1.67;;;10.40;70.90;;;;;;5093010;28;20112;-73
2024/01/23 00:57:46;;;;;;;0.50;0.50;;;10.40;70.90;;;;;;5092659;28;20407;-73
2024/01/23 01:00:12;;;;;;;0.50;0.50;;;10.50;70.80;;;;;;5092814;28;20028;-73
2024/01/23 01:02:37;;;;;;;0.60;0.60;;;10.50;70.80;;;;;;5093284;28;20032;-73
2024/01/23 01:05:03;;;;;;;0.60;0.60;;;10.50;70.80;;;;;;5092252;28;20051;-73
2024/01/23 01:07:28;;;;;;;0.60;0.60;;;10.50;70.70;;;;;;5092537;28;20501;-73
2024/01/23 01:09:54;;;;;;;0.60;0.60;;;10.50;70.60;;;;;;5092776;28;20030;-73
2024/01/23 01:12:20;;;;;;;0.50;0.50;;;10.50;70.60;;;;;;5093215;28;20028;-73
2024/01/23 01:14:45;;;;;;;0.77;0.77;;;10.50;70.60;;;;;;5074111;28;20495;-73
2024/01/23 01:17:11;;;;;;;0.52;0.52;;;10.60;70.60;;;;;;5093046;28;20032;-73
2024/01/23 01:19:36;;;;;;;0.60;0.60;;;10.50;70.70;;;;;;5092272;28;20032;-73
2024/01/23 01:22:02;;;;;;;0.60;0.60;;;10.60;70.80;;;;;;5092577;28;20031;-73
2024/01/23 01:24:28;;;;;;;0.60;0.60;;;10.60;70.60;;;;;;5092376;28;20484;-73
2024/01/23 01:26:53;;;;;;;0.50;0.50;;;10.60;70.60;;;;;;5092451;28;20020;-73
2024/01/23 01:29:19;;;;;;;0.50;0.50;;;10.60;70.60;;;;;;5092431;28;20053;-71
2024/01/23 01:31:44;;;;;;;2.80;0.85;;;10.50;70.50;;;;;;5092753;28;20032;-70
2024/01/23 01:34:10;;;;;;;0.50;0.50;;;10.50;70.30;;;;;;5092067;28;20024;-71
2024/01/23 01:36:35;;;;;;;0.50;0.50;;;10.50;70.20;;;;;;5091651;28;20024;-70
2024/01/23 01:39:03;;;;;;;0.50;0.50;;;10.40;70.10;;;;;;5092020;28;20028;-71
2024/01/23 01:41:28;;;;;;;0.50;0.50;;;10.40;70.10;;;;;;5092333;28;20024;-70
2024/01/23 01:43:54;;;;;;;0.50;0.50;;;10.40;70.50;;;;;;5092049;28;20036;-71
2024/01/23 01:46:24;;;;;;;0.50;0.50;;;10.40;70.40;;;;;;5092139;28;20028;-71
2024/01/23 01:48:51;;;;;;;0.60;0.60;;;10.40;70.30;;;;;;5091906;28;20484;-71
2024/01/23 01:51:25;;;;;;;0.50;0.50;;;10.40;70.40;;;;;;5092192;28;20028;-70
2024/01/23 01:53:51;;;;;;;0.60;0.60;;;10.40;70.40;;;;;;5091878;28;20039;-70
2024/01/23 01:56:18;;;;;;;0.73;0.73;;;10.40;70.30;;;;;;5092234;28;20471;-70
2024/01/23 01:58:45;;;;;;;0.50;0.50;;;10.40;70.30;;;;;;5092032;28;20028;-70
2024/01/23 02:01:11;;;;;;;0.50;0.50;;;10.40;70.50;;;;;;5073436;28;20475;-70
2024/01/23 02:03:37;;;;;;;0.60;0.60;;;10.50;70.60;;;;;;5091815;28;20035;-70
2024/01/23 02:06:04;;;;;;;0.65;0.65;;;10.60;70.70;;;;;;5091517;28;20034;-70
2024/01/23 02:08:29;;;;;;;0.50;0.50;;;10.60;70.60;;;;;;5091663;28;20509;-70
2024/01/23 02:10:55;;;;;;;0.52;0.52;;;10.60;70.20;;;;;;5091626;28;20107;-73
2024/01/23 02:13:24;;;;;;;0.50;0.50;;;10.60;70.00;;;;;;5091722;28;20433;-73
2024/01/23 02:15:50;;;;;;;0.60;0.60;;;10.50;69.80;;;;;;5091974;28;20088;-73
2024/01/23 02:18:16;;;;;;;0.50;0.50;;;10.40;69.70;;;;;;5091802;28;20036;-70
2024/01/23 02:20:41;;;;;;;0.50;0.50;;;10.40;69.80;;;;;;5091640;28;20061;-70
2024/01/23 02:23:17;;;;;;;0.50;0.50;;;10.30;69.60;;;;;;5091329;28;20486;-70
2024/01/23 02:25:43;;;;;;;0.60;0.60;;;10.20;69.60;;;;;;5091513;28;20044;-70
2024/01/23 02:28:10;;;;;;;0.50;0.50;;;10.20;69.50;;;;;;5091297;28;20056;-70
2024/01/23 02:30:36;;;;;;;0.43;0.43;;;10.10;69.40;;;;;;5091494;28;20036;-70
2024/01/23 02:33:05;;;;;;;0.50;0.50;;;10.10;69.20;;;;;;5091331;28;20024;-70
2024/01/23 02:35:32;;;;;;;0.50;0.50;;;10.00;69.10;;;;;;5091432;28;20121;-70
2024/01/23 02:37:58;;;;;;;0.50;0.50;;;9.90;68.80;;;;;;5091349;28;20089;-70
2024/01/23 02:40:23;;;;;;;0.63;0.63;;;9.80;68.50;;;;;;5091758;28;20066;-73
2024/01/23 02:42:49;;;;;;;0.50;0.50;;;9.70;68.50;;;;;;5073835;28;20103;-73
2024/01/23 02:45:15;;;;;;;0.57;0.57;;;9.60;68.40;;;;;;5091417;28;20024;-73
2024/01/23 02:47:40;;;;;;;0.50;0.50;;;9.50;68.40;;;;;;5094321;28;20027;-73
2024/01/23 02:50:07;;;;;;;0.60;0.60;;;9.50;68.50;;;;;;5095630;28;20058;-73
2024/01/23 02:52:32;;;;;;;0.50;0.50;;;9.40;68.50;;;;;;5095629;28;20085;-73
2024/01/23 02:54:58;;;;;;;0.60;0.60;;;9.30;68.60;;;;;;5095335;28;20028;-73
2024/01/23 02:57:25;;;;;;;0.50;0.50;;;9.30;68.80;;;;;;5096289;28;20042;-73
2024/01/23 02:59:54;;;;;;;0.60;0.60;;;9.30;69.20;;;;;;5095750;28;20093;-73
2024/01/23 03:02:20;;;;;;;0.75;0.75;;;9.30;69.60;;;;;;5095750;28;20111;-73
2024/01/23 03:04:46;;;;;;;0.52;0.52;;;9.30;70.00;;;;;;5095140;28;20036;-73
2024/01/23 03:07:12;;;;;;;0.50;0.50;;;9.40;70.20;;;;;;5095506;28;20028;-73
2024/01/23 03:09:39;;;;;;;0.60;0.60;;;9.40;70.10;;;;;;5095504;28;20040;-73
2024/01/23 03:12:18;;;;;;;0.50;0.50;;;9.50;70.10;;;;;;5095082;28;20035;-73
2024/01/23 03:14:44;;;;;;;0.50;0.50;;;9.50;70.30;;;;;;5094839;28;20098;-73
2024/01/23 03:17:11;;;;;;;1.13;0.90;;;9.60;70.30;;;;;;5095048;28;20028;-73
2024/01/23 03:19:36;;;;;;;0.63;0.63;;;9.50;70.10;;;;;;5094779;28;20039;-73
2024/01/23 03:22:03;;;;;;;0.50;0.50;;;9.50;70.10;;;;;;5095059;28;20032;-73
2024/01/23 03:24:28;;;;;;;0.52;0.52;;;9.40;70.10;;;;;;5094740;28;20077;-73
2024/01/23 03:26:54;;;;;;;0.50;0.50;;;9.40;70.20;;;;;;5094725;28;20036;-73
2024/01/23 03:29:19;;;;;;;0.60;0.60;;;9.40;70.10;;;;;;5094750;28;20023;-73
2024/01/23 03:31:45;;;;;;;0.52;0.52;;;9.40;70.00;;;;;;5094785;28;20039;-73
2024/01/23 03:34:10;;;;;;;0.50;0.50;;;9.30;69.80;;;;;;5094433;28;20081;-73
2024/01/23 03:36:36;;;;;;;0.50;0.50;;;9.30;69.50;;;;;;5094879;28;20039;-73
2024/01/23 03:39:02;;;;;;;0.50;0.50;;;9.20;69.40;;;;;;5094279;28;20111;-73
2024/01/23 03:41:27;;;;;;;0.45;0.45;;;9.10;69.20;;;;;;5094754;28;20057;-73
2024/01/23 03:43:52;;;;;;;0.50;0.50;;;9.00;69.40;;;;;;5094410;28;20032;-73
2024/01/23 03:46:18;;;;;;;0.50;0.50;;;9.10;69.80;;;;;;5094507;28;20036;-72
2024/01/23 03:48:43;;;;;;;0.45;0.45;;;9.10;70.20;;;;;;5094305;28;20029;-73
2024/01/23 03:51:09;;;;;;;0.50;0.50;;;9.10;70.40;;;;;;5094207;28;20103;-73
2024/01/23 03:53:34;;;;;;;0.50;0.50;;;9.20;70.40;;;;;;5094168;28;20030;-73
2024/01/23 03:56:00;;;;;;;0.50;0.50;;;9.20;70.20;;;;;;5094398;28;20055;-72
2024/01/23 03:58:25;;;;;;;0.60;0.60;;;9.20;70.10;;;;;;5093388;28;20064;-73
2024/01/23 04:00:53;;;;;;;0.60;0.60;;;9.20;70.00;;;;;;5075748;28;20119;-73
2024/01/23 04:03:18;;;;;;;0.60;0.60;;;9.30;70.10;;;;;;5093876;28;20472;-73
2024/01/23 04:05:43;;;;;;;0.50;0.50;;;9.30;70.40;;;;;;5093769;28;20076;-72
2024/01/23 04:08:09;;;;;;;1.05;1.02;;;9.40;70.70;;;;;;5075727;28;20135;-73
2024/01/23 04:10:34;;;;;;;0.50;0.50;;;9.50;70.90;;;;;;5093865;28;20032;-72
2024/01/23 04:13:00;;;;;;;0.50;0.50;;;9.60;70.90;;;;;;5094188;28;20463;-72
2024/01/23 04:15:26;;;;;;;0.45;0.45;;;9.70;70.90;;;;;;5093758;28;20039;-72
2024/01/23 04:17:55;;;;;;;0.50;0.50;;;9.80;70.90;;;;;;5093687;28;20024;-72
2024/01/23 04:20:20;;;;;;;0.50;0.50;;;9.90;70.90;;;;;;5093537;28;20020;-72
2024/01/23 04:22:45;;;;;;;0.60;0.60;;;10.00;70.90;;;;;;5093554;28;20032;-72
2024/01/23 04:25:12;;;;;;;0.50;0.50;;;10.10;70.80;;;;;;5093494;28;20067;-73
2024/01/23 04:27:37;;;;;;;0.50;0.50;;;10.20;70.80;;;;;;5093731;28;20391;-73
2024/01/23 04:30:03;;;;;;;0.60;0.60;;;10.20;70.60;;;;;;5093626;28;20024;-73
2024/01/23 04:32:29;;;;;;;0.57;0.57;;;10.20;70.60;;;;;;5093385;28;20032;-73
2024/01/23 04:34:54;;;;;;;0.60;0.60;;;10.30;70.60;;;;;;5093566;28;20032;-72
2024/01/23 04:37:21;;;;;;;0.40;0.40;;;10.30;70.60;;;;;;5093599;28;20027;-73
2024/01/23 04:39:47;;;;;;;0.60;0.60;;;10.40;70.60;;;;;;5074983;28;20449;-72
2024/01/23 04:42:12;;;;;;;0.52;0.52;;;10.40;70.70;;;;;;5093467;28;20032;-73
2024/01/23 04:44:38;;;;;;;0.60;0.60;;;10.40;70.60;;;;;;5093296;28;20040;-72
2024/01/23 04:47:03;;;;;;;0.57;0.57;;;10.50;70.50;;;;;;5093575;28;20032;-72
2024/01/23 04:49:30;;;;;;;0.80;0.80;;;10.50;70.40;;;;;;5092946;28;20025;-73
2024/01/23 04:51:56;;;;;;;0.50;0.50;;;10.50;70.40;;;;;;5093304;28;20024;-73
2024/01/23 04:54:21;;;;;;;0.50;0.50;;;10.60;70.40;;;;;;5093072;28;20024;-73
2024/01/23 04:56:47;;;;;;;0.85;0.85;;;10.60;70.30;;;;;;5093123;28;20032;-73
2024/01/23 04:59:13;;;;;;;0.93;0.93;;;10.70;70.30;;;;;;5093268;28;20437;-69
2024/01/23 05:01:38;;;;;;;0.60;0.60;;;10.70;70.30;;;;;;5093101;28;20102;-70
2024/01/23 05:04:04;;;;;;;0.50;0.50;;;10.70;70.30;;;;;;5092842;28;20047;-69
2024/01/23 05:06:30;;;;;;;0.55;0.55;;;10.70;70.30;;;;;;5092278;28;20488;-69
2024/01/23 05:08:56;;;;;;;0.60;0.60;;;10.70;70.20;;;;;;5092675;28;20103;-70
2024/01/23 05:11:21;;;;;;;0.50;0.50;;;10.80;70.20;;;;;;5074217;28;20158;-69
2024/01/23 05:13:47;;;;;;;0.60;0.60;;;10.80;70.20;;;;;;5074257;28;20046;-70
2024/01/23 05:16:12;;;;;;;0.50;0.50;;;10.80;70.10;;;;;;5092607;28;20153;-69
2024/01/23 05:18:38;;;;;;;0.50;0.50;;;10.80;70.10;;;;;;5092622;28;20454;-70
2024/01/23 05:21:04;;;;;;;0.50;0.50;;;10.80;70.20;;;;;;5092376;28;20059;-69
2024/01/23 05:23:30;;;;;;;0.50;0.50;;;10.80;70.20;;;;;;5092281;28;20480;-69
2024/01/23 05:25:55;;;;;;;0.60;0.60;;;10.80;70.20;;;;;;5092359;28;20375;-69
2024/01/23 05:28:21;;;;;;;0.63;0.63;;;10.80;70.20;;;;;;5074166;28;20028;-69
2024/01/23 05:30:47;;;;;;;0.52;0.52;;;10.80;70.20;;;;;;5092334;28;20036;-70
2024/01/23 05:33:12;;;;;;;0.60;0.60;;;10.80;70.20;;;;;;5092250;28;20077;-69
2024/01/23 05:35:38;;;;;;;0.60;0.60;;;10.80;70.10;;;;;;5092312;28;20073;-69
2024/01/23 05:38:03;;;;;;;0.52;0.52;;;10.80;70.20;;;;;;5092006;28;20043;-69
2024/01/23 05:40:29;;;;;;;0.57;0.57;;;10.80;70.20;;;;;;5092054;28;20031;-69
2024/01/23 05:42:54;;;;;;;0.90;0.90;;;10.80;70.30;;;;;;5091998;28;20051;-69
2024/01/23 05:45:20;;;;;;;0.50;0.50;;;10.80;70.10;;;;;;5091839;28;20072;-69
2024/01/23 05:47:45;;;;;;;0.50;0.50;;;10.80;70.10;;;;;;5091834;28;20036;-69
2024/01/23 05:50:11;;;;;;;0.50;0.50;;;10.80;70.20;;;;;;5073875;28;20107;-70
2024/01/23 05:52:36;;;;;;;0.60;0.60;;;10.80;70.10;;;;;;5091757;28;20024;-70
2024/01/23 05:55:03;;;;;;;0.60;0.60;;;10.80;70.20;;;;;;5091615;28;20016;-70
2024/01/23 05:57:29;;;;;;;3.05;0.98;;;10.70;70.10;;;;;;5091780;28;20028;-71
2024/01/23 05:59:55;;;;;;;0.55;0.55;;;10.70;70.00;;;;;;5091792;28;20031;-70
2024/01/23 06:02:20;;;;;;;2.05;1.45;;;10.70;69.80;;;;;;5092294;28;20032;-70
2024/01/23 06:04:46;;;;;;;0.60;0.60;;;10.60;70.00;;;;;;5091639;28;20093;-70
2024/01/23 06:07:12;;;;;;;0.95;0.88;;;10.60;70.10;;;;;;5092015;28;20036;-70
2024/01/23 06:09:37;;;;;;;0.63;0.63;;;10.70;70.20;;;;;;5091721;28;20035;-73
2024/01/23 06:12:03;;;;;;;0.43;0.43;;;10.60;70.40;;;;;;5091955;28;20111;-72
2024/01/23 06:14:28;;;;;;;1.92;1.83;;;10.70;70.30;;;;;;5091673;28;20426;-73
2024/01/23 06:16:54;;;;;;;0.50;0.50;;;10.70;70.30;;;;;;5092039;28;20028;-73
2024/01/23 06:19:20;;;;;;;0.60;0.60;;;10.70;70.40;;;;;;5091511;28;20034;-72
2024/01/23 06:21:45;;;;;;;0.50;0.50;;;10.70;70.40;;;;;;5073275;28;20059;-73
2024/01/23 06:24:11;;;;;;;0.50;0.50;;;10.80;70.30;;;;;;5091420;28;20024;-73
2024/01/23 06:26:36;;;;;;;2.08;0.65;;;10.80;70.30;;;;;;5091628;28;20039;-73
2024/01/23 06:29:03;;;;;;;0.50;0.50;;;10.80;70.40;;;;;;5091350;28;20523;-72
2024/01/23 06:31:29;;;;;;;0.50;0.50;;;10.80;70.30;;;;;;5091170;28;20024;-73
2024/01/23 06:33:56;;;;;;;1.15;1.05;;;10.90;70.30;;;;;;5091432;28;20503;-73
2024/01/23 06:36:21;;;;;;;0.60;0.60;;;10.90;70.20;;;;;;5091592;28;20506;-73
2024/01/23 06:38:47;;;;;;;0.60;0.60;;;10.90;70.30;;;;;;5091527;28;20028;-73
2024/01/23 06:41:12;;;;;;;0.57;0.57;;;10.90;70.20;;;;;;5091126;28;20043;-73
2024/01/23 06:43:38;;;;;;;0.40;0.40;;;11.00;70.20;;;;;;5090692;28;20044;-73
2024/01/23 06:46:03;;;;;;;0.65;0.65;;;11.00;70.20;;;;;;5091229;28;20028;-73
2024/01/23 06:48:31;;;;;;;0.50;0.50;;;11.00;70.20;;;;;;5091180;28;20040;-73
2024/01/23 06:50:56;;;;;;;1.50;1.40;;;11.00;70.10;;;;;;5090962;28;20047;-73
2024/01/23 06:53:22;;;;;;;4.57;1.45;;;11.00;70.20;;;;;;5090888;28;20060;-73
2024/01/23 06:55:48;;;;;;;0.60;0.60;;;11.00;70.10;;;;;;5091205;28;20471;-72
2024/01/23 06:58:13;;;;;;;0.50;0.50;;;11.00;70.20;;;;;;5091089;28;20028;-73
2024/01/23 07:00:39;;;;;;;0.50;0.50;;;11.00;70.20;;;;;;5091125;28;20414;-73
2024/01/23 07:03:06;;;;;;;0.50;0.50;;;11.00;70.10;;;;;;5091114;28;20055;-72
2024/01/23 07:05:32;;;;;;;0.65;0.65;;;11.00;70.00;;;;;;5090935;28;20094;-73
2024/01/23 07:07:57;;;;;;;1.13;1.02;;;11.00;70.10;;;;;;5090856;28;20020;-72
2024/01/23 07:10:23;;;;;;;0.75;0.75;;;11.00;70.00;;;;;;5091345;28;20032;-73
2024/01/23 07:12:48;;;;;;;0.50;0.50;;;11.00;70.00;;;;;;5091041;28;20447;-73
2024/01/23 07:15:14;;;;;;;0.70;0.70;;;11.00;70.10;;;;;;5090909;28;20024;-73
2024/01/23 07:17:39;;;;;;;0.50;0.50;;;11.00;70.10;;;;;;5090865;28;20028;-72
2024/01/23 07:20:09;;;;;;;0.50;0.50;;;11.00;70.10;;;;;;5091095;28;20099;-70
2024/01/23 07:22:34;;;;;;;0.40;0.40;;;11.00;70.10;;;;;;5090984;28;20026;-71
2024/01/23 07:25:02;;;;;;;0.50;0.50;;;11.00;70.10;;;;;;5091009;28;20028;-71
2024/01/23 07:27:29;;;;;;;0.60;0.60;;;11.00;70.10;;;;;;5090868;28;20024;-72
2024/01/23 07:29:55;;;;;;;0.65;0.65;;;11.00;69.90;;;;;;5091314;28;20495;-71
2024/01/23 07:32:20;;;;;;;0.50;0.50;;;11.00;69.90;;;;;;5090843;28;20033;-71
2024/01/23 07:34:46;;;;;;;0.50;0.50;;;11.00;70.00;;;;;;5093471;28;20039;-71
2024/01/23 07:37:11;;;;;;;0.50;0.50;;;11.00;69.90;;;;;;5093580;28;20048;-71
2024/01/23 07:39:37;;;;;;;1.42;1.33;;;11.00;69.90;;;;;;5094399;28;20107;-71
2024/01/23 07:42:03;;;;;;;0.50;0.50;;;11.10;69.90;;;;;;5093215;28;20387;-71
2024/01/23 07:44:29;;;;;;;0.73;0.73;;;11.00;69.90;;;;;;5094611;28;20475;-71
2024/01/23 07:46:54;;;;;;;0.55;0.55;;;11.00;70.00;;;;;;5094469;28;20111;-71
2024/01/23 07:49:20;;;;;;;0.50;0.50;;;11.00;69.90;;;;;;5094160;28;20472;-71
2024/01/23 07:51:50;;;;;;;1.75;1.15;;;11.00;70.00;;;;;;5078037;28;20050;-71
2024/01/23 07:54:16;;;;;;;0.97;0.97;;;11.00;70.00;;;;;;5092305;28;20475;-72
2024/01/23 07:56:41;;;;;;;0.50;0.50;;;11.00;70.10;;;;;;5092141;28;20110;-71
2024/01/23 07:59:07;;;;;;;0.50;0.50;;;11.00;70.00;;;;;;5093968;28;20062;-71
2024/01/23 08:01:32;;;;;;;0.70;0.70;;;11.00;70.00;;;;;;5094182;28;20418;-71
2024/01/23 08:03:58;;;;;;;0.60;0.60;;;11.10;70.10;;;;;;5093283;28;20035;-72
2024/01/23 08:06:26;;;;;;;0.50;0.50;;;11.00;69.90;;;;;;5093615;28;20443;-71
2024/01/23 08:08:52;;;;;;;0.50;0.50;;;11.10;70.00;;;;;;5075695;28;20024;-71
2024/01/23 08:11:20;;;;;;;0.52;0.52;;;11.10;69.90;;;;;;5093164;28;20036;-71
2024/01/23 08:13:45;;;;;;;0.50;0.50;;;11.10;70.00;;;;;;5093746;28;20020;-71
2024/01/23 08:16:11;;;;;;;0.60;0.60;;;11.10;70.10;;;;;;5090645;28;20051;-71
2024/01/23 08:18:38;;;;;;;0.50;0.50;;;11.10;70.00;;;;;;5093692;28;20054;-71
2024/01/23 08:21:04;;;;;;;0.75;0.75;;;11.10;70.00;;;;;;5093143;28;20040;-71
2024/01/23 08:23:30;;;;;;;0.60;0.60;;;11.20;69.90;;;;;;5093241;28;20028;-71
2024/01/23 08:25:55;;;;;;;0.60;0.60;;;11.20;69.90;;;;;;5072349;28;20028;-71
2024/01/23 08:28:23;;;;;;;0.60;0.60;;;11.20;70.00;;;;;;5093561;28;20038;-71
2024/01/23 08:30:48;;;;;;;0.60;0.60;;;11.20;70.00;;;;;;5093089;28;20024;-72
2024/01/23 08:33:18;;;;;;;0.57;0.57;;;11.20;70.20;;;;;;5092758;28;20024;-72
2024/01/23 08:35:44;;;;;;;0.60;0.60;;;11.20;70.10;;;;;;5090759;28;20106;-72
2024/01/23 08:38:10;;;;;;;0.80;0.80;;;11.30;69.90;;;;;;5092642;28;20036;-72
2024/01/23 08:40:37;;;;;;;0.57;0.57;;;11.30;69.90;;;;;;5092557;28;20020;-72
2024/01/23 08:43:03;;;;;;;0.50;0.50;;;11.30;69.90;;;;;;5092121;28;20019;-72
2024/01/23 08:45:29;;;;;;;0.70;0.70;;;11.40;69.90;;;;;;5087971;28;20498;-72
2024/01/23 08:47:55;;;;;;;0.95;0.95;;;11.40;69.90;;;;;;5091768;28;20162;-72
2024/01/23 08:50:21;;;;;;;0.60;0.60;;;11.40;69.90;;;;;;5092914;28;20059;-72
2024/01/23 08:52:47;;;;;;;0.77;0.77;;;11.40;69.70;;;;;;5092645;28;20543;-74
2024/01/23 08:55:14;;;;;;;0.98;0.98;;;11.40;69.80;;;;;;5074794;28;20024;-72
2024/01/23 08:57:40;;;;;;;0.70;0.70;;;11.40;69.70;;;;;;5074423;28;20401;-72
2024/01/23 09:00:06;;;;;;;0.75;0.75;;;11.50;69.80;;;;;;5092623;28;20106;-72
2024/01/23 09:02:31;;;;;;;0.50;0.50;;;11.50;70.00;;;;;;5092695;28;20028;-72
2024/01/23 09:04:57;;;;;;;0.55;0.55;;;11.50;69.90;;;;;;5091966;28;20032;-72
2024/01/23 09:07:22;;;;;;;1.30;1.20;;;11.60;69.80;;;;;;5092635;28;20059;-72
2024/01/23 09:09:51;;;;;;;2.00;1.77;;;11.60;69.90;;;;;;5074236;28;20043;-72
2024/01/23 09:12:17;;;;;;;0.60;0.60;;;11.60;70.00;;;;;;5092738;28;20034;-72
2024/01/23 09:14:43;;;;;;;0.50;0.50;;;11.70;70.30;;;;;;5092400;28;20032;-71
2024/01/23 09:17:09;;;;;;;1.02;0.98;;;11.70;70.20;;;;;;5091474;28;20543;-72
2024/01/23 09:19:35;;;;;;;0.50;0.50;;;11.80;70.10;;;;;;5092344;28;20116;-71
2024/01/23 09:22:00;;;;;;;0.82;0.82;;;11.80;69.90;;;;;;5092492;28;20028;-71
2024/01/23 09:24:26;;;;;;;0.82;0.82;;;11.80;69.70;;;;;;5091576;28;20118;-71
2024/01/23 09:26:51;;;;;;;0.50;0.50;;;11.80;69.60;;;;;;5092286;28;20028;-71
2024/01/23 09:29:17;;;;;;;0.60;0.60;;;11.80;70.00;;;;;;5092208;28;20095;-71
2024/01/23 09:31:46;;;;;;;0.50;0.50;;;11.80;69.80;;;;;;5091504;28;20417;-71
2024/01/23 09:34:13;;;;;;;0.80;0.80;;;11.80;69.90;;;;;;5092066;28;20027;-71
2024/01/23 09:36:38;;;;;;;1.35;1.08;;;11.90;69.90;;;;;;5092410;28;20028;-71
2024/01/23 09:39:04;;;;;;;0.40;0.40;;;11.90;70.00;;;;;;5092050;28;20036;-71
2024/01/23 09:41:33;;;;;;;0.70;0.70;;;12.00;70.00;;;;;;5092190;28;20039;-71
2024/01/23 09:43:59;;;;;;;1.02;1.02;;;12.10;70.60;;;;;;5090565;28;20406;-71
2024/01/23 09:46:25;;;;;;;0.60;0.60;;;12.30;70.10;;;;;;5092157;28;20028;-72
2024/01/23 09:48:52;;;;;;;0.50;0.50;;;12.40;70.60;;;;;;5091759;28;20028;-71
2024/01/23 09:51:18;;;;;;;0.68;0.68;;;12.50;70.60;;;;;;5091916;28;20036;-71
2024/01/23 09:53:44;;;;;;;0.57;0.57;;;12.60;69.90;;;;;;5091820;28;20024;-71
2024/01/23 09:56:14;;;;;;;0.50;0.50;;;12.60;70.10;;;;;;5091088;28;20032;-71
2024/01/23 09:58:40;;;;;;;1.13;1.13;;;12.80;70.40;;;;;;5091746;28;20031;-71
2024/01/23 10:01:05;;;;;;;3.60;2.30;;;12.90;70.40;;;;;;5091914;28;20028;-71
2024/01/23 10:03:34;;;;;;;2.30;1.77;;;13.00;69.90;;;;;;5091843;28;20028;-71
2024/01/23 10:06:01;;;;;;;0.68;0.68;;;13.00;70.00;;;;;;5091779;28;20032;-71
2024/01/23 10:08:26;;;;;;;0.95;0.95;;;13.00;70.10;;;;;;5091897;28;20022;-71
2024/01/23 10:11:01;;;;;;;0.65;0.60;;;13.10;69.70;;;;;;5091555;28;20035;-71
2024/01/23 10:13:28;;;;;;;1.85;1.40;;;13.20;70.10;;;;;;5090496;28;20115;-71
2024/01/23 10:15:57;;;;;;;0.50;0.50;;;13.30;69.90;;;;;;5091607;28;20032;-71
2024/01/23 10:18:24;;;;;;;1.10;1.10;;;13.30;70.30;;;;;;5091448;28;20101;-71
2024/01/23 10:20:50;;;;;;;0.60;0.60;;;13.30;70.20;;;;;;5091312;28;20036;-71
2024/01/23 10:23:16;;;;;;;1.05;1.02;;;13.50;70.80;;;;;;5091290;28;20107;-70
2024/01/23 10:25:42;;;;;;;0.60;0.60;;;13.80;71.20;;;;;;5091348;28;20034;-70
2024/01/23 10:28:09;;;;;;;2.78;2.25;;;14.00;70.90;;;;;;5091549;28;20028;-70
2024/01/23 10:30:38;;;;;;;0.50;0.50;;;14.10;70.60;;;;;;5091455;28;20032;-70
2024/01/23 10:33:05;;;;;;;0.57;0.57;;;14.20;70.50;;;;;;5091345;28;20038;-70
2024/01/23 10:35:34;;;;;;;0.80;0.80;;;14.20;70.30;;;;;;5091193;28;20035;-72
2024/01/23 10:38:02;;;;;;;1.98;1.23;;;14.10;69.70;;;;;;5091007;28;20027;-70
2024/01/23 10:40:28;;;;;;;0.63;0.63;;;14.10;70.10;;;;;;5091067;28;20031;-70
2024/01/23 10:42:56;;;;;;;0.63;0.63;;;14.00;69.60;;;;;;5090932;28;20480;-70
2024/01/23 10:45:22;;;;;;;0.60;0.60;;;14.00;69.00;;;;;;5091082;28;20024;-72
2024/01/23 10:47:49;;;;;;;0.50;0.50;;;13.90;69.60;;;;;;5090884;28;20259;-70
2024/01/23 10:50:15;;;;;;;1.08;1.08;;;13.90;69.60;;;;;;5090923;28;20028;-68
2024/01/23 10:52:45;;;;;;;0.68;0.68;;;13.90;69.90;;;;;;5091025;28;20107;-69
2024/01/23 10:55:13;;;;;;;0.73;0.73;;;13.80;69.70;;;;;;5090909;28;20024;-69
2024/01/23 10:57:39;;;;;;;0.57;0.57;;;13.80;69.70;;;;;;5091185;28;20032;-68
2024/01/23 11:00:10;;;;;;;0.55;0.55;;;13.90;69.00;;;;;;5090796;28;20475;-68
2024/01/23 11:02:40;;;;;;;;;;;13.80;68.80;;;;;;5091518;28;20028;-70
2024/01/23 11:05:06;;;;;;;0.75;0.75;;;13.80;69.30;;;;;;5090772;28;19912;-68
2024/01/23 11:07:44;;;;;;;10.52;2.05;;;13.80;69.40;;;;;;5091704;28;20285;-68
2024/01/23 11:10:27;;;;;;;1.15;1.05;;;13.80;68.50;;;;;;5094884;28;20027;-68
2024/01/23 11:13:11;;;;;;;0.63;0.63;;;13.70;69.40;;;;;;5094766;28;20571;-68
2024/01/23 11:15:37;;;;;;;1.08;1.08;;;13.80;69.20;;;;;;5094868;28;20094;-69
2024/01/23 11:18:23;;;;;;;0.52;0.52;;;13.90;69.50;;;;;;5094607;28;20131;-68
2024/01/23 11:21:04;;;;;;;0.60;0.60;;;14.00;69.20;;;;;;5093395;28;20031;-68
2024/01/23 11:23:32;;;;;;;;;;;14.10;70.00;;;;;;5095148;28;20032;-69
2024/01/23 11:26:03;;;;;;;0.50;0.50;;;14.20;70.20;;;;;;5094357;28;19915;-68
2024/01/23 11:28:31;;;;;;;;;;;14.40;69.90;;;;;;5093863;28;20032;-68
2024/01/23 11:31:13;;;;;;;0.52;0.52;;;14.30;69.60;;;;;;5094567;28;19956;-71
2024/01/23 11:33:39;;;;;;;0.60;0.60;;;14.30;69.90;;;;;;5094524;28;20539;-68
2024/01/23 11:36:08;;;;;;;0.60;0.60;;;14.40;70.20;;;;;;5094462;28;20031;-67
2024/01/23 11:38:44;;;;;;;0.75;0.75;;;14.50;70.20;;;;;;5094386;28;20115;-68
2024/01/23 11:41:22;;;;;;;0.60;0.60;;;14.60;69.80;;;;;;5094507;28;20028;-70
2024/01/23 11:43:53;;;;;;;0.50;0.50;;;14.50;69.20;;;;;;5094752;28;20495;-68
2024/01/23 11:46:22;;;;;;;0.70;0.70;;;14.40;68.60;;;;;;5094600;28;20103;-71
2024/01/23 11:48:48;;;;;;;1.17;1.08;;;14.40;68.40;;;;;;5094544;28;20032;-70
2024/01/23 11:51:15;;;;;;;0.65;0.63;;;14.50;69.20;;;;;;5094671;28;20062;-69
2024/01/23 11:53:41;;;;;;;1.40;1.10;;;14.60;69.50;;;;;;5094287;28;20040;-70
2024/01/23 11:56:09;;;;;;;3.13;1.92;;;14.50;69.10;;;;;;5094140;28;20402;-67
2024/01/23 11:58:34;;;;;;;0.50;0.50;;;14.50;69.60;;;;;;5094556;28;20086;-67
2024/01/23 12:01:02;;;;;;;0.82;0.82;;;14.60;70.10;;;;;;5093775;28;20023;-68
2024/01/23 12:03:28;;;;;;;0.70;0.70;;;14.70;69.60;;;;;;5094156;28;20089;-68
2024/01/23 12:05:54;;;;;;;0.70;0.70;;;14.70;68.90;;;;;;5092355;28;20422;-68
2024/01/23 12:08:22;;;;;;;1.45;1.35;;;14.60;67.70;;;;;;5093866;28;20081;-70
2024/01/23 12:10:48;;;;;;;0.50;0.50;;;14.50;68.40;;;;;;5094080;28;20480;-68
2024/01/23 12:13:13;;;;;;;0.57;0.57;;;14.40;67.70;;;;;;5093701;28;20028;-67
2024/01/23 12:15:39;;;;;;;2.17;1.13;;;14.30;67.30;;;;;;5093798;28;20024;-68
2024/01/23 12:18:04;;;;;;;1.33;1.23;;;14.20;67.70;;;;;;5093569;28;20473;-67
2024/01/23 12:20:30;;;;;;;1.33;1.05;;;14.20;68.40;;;;;;5092690;28;20024;-67
2024/01/23 12:22:56;;;;;;;0.60;0.60;;;14.30;69.10;;;;;;5093621;28;20032;-67
2024/01/23 12:25:22;;;;;;;0.52;0.52;;;14.30;67.70;;;;;;5093678;28;20038;-68
2024/01/23 12:27:48;;;;;;;0.55;0.55;;;14.20;67.80;;;;;;5093668;28;20446;-67
2024/01/23 12:30:15;;;;;;;0.70;0.70;;;14.30;68.20;;;;;;5093392;28;20058;-67
2024/01/23 12:32:48;;;;;;;0.80;0.80;;;14.30;68.50;;;;;;5093429;28;20032;-67
2024/01/23 12:35:13;;;;;;;0.50;0.50;;;14.40;68.10;;;;;;5093344;28;20391;-67
2024/01/23 12:37:40;;;;;;;1.17;1.08;;;14.50;68.40;;;;;;5093341;28;20028;-67
2024/01/23 12:40:09;;;;;;;0.90;0.90;;;14.50;68.30;;;;;;5093110;28;20549;-68
2024/01/23 12:42:39;;;;;;;0.50;0.50;;;14.60;67.90;;;;;;5093318;28;20028;-68
2024/01/23 12:45:08;;;;;;;0.50;0.50;;;14.50;68.10;;;;;;5092938;28;20025;-68